Time;durP1;ratioP1;P1;durP2;ratioP2;P2;SDS_P1;SDS_P2;PMS_P1;PMS_P2;Temp;Humidity;BMP_temperature;BMP_pressure;BME280_temperature;BME280_humidity;BME280_pressure;Samples;Min_cycle;Max_cycle;Signal;HPM_P1;HPM_P2
2022/05/09 00:01:56;;;;;;;5.67;2.00;;;11.50;78.80;;;;;;4178482;28;20249;-81
2022/05/09 00:03:59;;;;;;;3.27;1.80;;;11.50;80.20;;;;;;4181333;28;20206;-80
2022/05/09 00:06:02;;;;;;;4.40;1.53;;;11.50;80.00;;;;;;4185721;28;20697;-80
2022/05/09 00:08:04;;;;;;;3.83;1.57;;;11.40;81.30;;;;;;4179704;28;20286;-81
2022/05/09 00:10:07;;;;;;;6.10;2.10;;;11.40;80.80;;;;;;4185633;28;20253;-80
2022/05/09 00:12:10;;;;;;;3.60;2.00;;;11.40;78.20;;;;;;4183673;28;20219;-81
2022/05/09 00:14:13;;;;;;;6.97;1.70;;;11.40;74.60;;;;;;4185688;28;20228;-80
2022/05/09 00:16:14;;;;;;;4.27;1.80;;;11.30;72.50;;;;;;4185829;28;20249;-80
2022/05/09 00:18:19;;;;;;;11.77;1.90;;;11.50;69.90;;;;;;4183318;28;20685;-80
2022/05/09 00:20:23;;;;;;;7.50;1.90;;;11.30;67.00;;;;;;4187158;28;20213;-81
2022/05/09 00:22:24;;;;;;;4.17;1.80;;;12.00;65.40;;;;;;4183605;28;20269;-80
2022/05/09 00:24:26;;;;;;;6.20;2.00;;;11.20;63.80;;;;;;4184230;28;20657;-80
2022/05/09 00:26:31;;;;;;;6.40;1.70;;;11.20;62.80;;;;;;4186497;28;20650;-79
2022/05/09 00:28:33;;;;;;;3.57;1.70;;;11.20;62.20;;;;;;4180449;28;20261;-80
2022/05/09 00:30:34;;;;;;;4.33;1.63;;;11.20;61.70;;;;;;4185148;28;20659;-79
2022/05/09 00:32:36;;;;;;;4.87;1.53;;;11.20;61.50;;;;;;4189454;28;20477;-80
2022/05/09 00:34:38;;;;;;;5.13;2.17;;;11.20;61.30;;;;;;4187774;28;20405;-79
2022/05/09 00:36:41;;;;;;;4.77;1.67;;;11.10;61.20;;;;;;4188206;28;20214;-80
2022/05/09 00:38:43;;;;;;;6.73;1.80;;;11.10;61.70;;;;;;4180403;28;20272;-80
2022/05/09 00:41:28;;;;;;;4.70;1.50;;;11.10;61.70;;;;;;4185401;28;20258;-80
2022/05/09 00:43:29;;;;;;;9.63;2.10;;;10.90;60.80;;;;;;4185014;28;20211;-79
2022/05/09 00:45:31;;;;;;;4.90;1.70;;;11.00;61.10;;;;;;4176041;28;20235;-80
2022/05/09 00:47:33;;;;;;;2.23;1.43;;;11.00;61.10;;;;;;4178475;28;20215;-80
2022/05/09 00:49:40;;;;;;;4.13;1.80;;;11.00;61.20;;;;;;4183860;28;20759;-79
2022/05/09 00:51:49;;;;;;;4.23;1.70;;;10.90;61.30;;;;;;4182853;28;20213;-81
2022/05/09 00:53:55;;;;;;;3.27;1.70;;;11.00;61.40;;;;;;4190861;28;20244;-80
2022/05/09 00:56:00;;;;;;;4.87;1.60;;;10.90;61.50;;;;;;4238392;22;20237;-86
2022/05/09 00:58:07;;;;;;;6.47;1.73;;;10.90;61.70;;;;;;4237681;27;20294;-85
2022/05/09 01:00:12;;;;;;;4.87;1.60;;;11.10;61.60;;;;;;4232245;28;20237;-87
2022/05/09 01:02:15;;;;;;;4.40;1.80;;;10.80;61.60;;;;;;4244156;27;20267;-85
2022/05/09 01:04:22;;;;;;;7.37;2.13;;;10.80;61.60;;;;;;4242386;27;20218;-86
2022/05/09 01:06:24;;;;;;;5.17;1.50;;;10.90;61.50;;;;;;4242597;27;20271;-85
2022/05/09 01:08:27;;;;;;;3.80;1.63;;;10.80;61.30;;;;;;4241123;27;20226;-85
2022/05/09 01:10:36;;;;;;;3.60;1.30;;;10.70;61.10;;;;;;4243876;27;20302;-86
2022/05/09 01:12:40;;;;;;;4.57;1.80;;;10.70;61.60;;;;;;4240399;27;20208;-86
2022/05/09 01:14:42;;;;;;;5.60;1.60;;;10.70;62.00;;;;;;4231369;27;20210;-85
2022/05/09 01:16:46;;;;;;;4.37;1.53;;;10.70;62.40;;;;;;4232843;27;20314;-86
2022/05/09 01:18:48;;;;;;;7.20;1.63;;;10.60;62.90;;;;;;4235461;27;20286;-85
2022/05/09 01:20:50;;;;;;;3.23;1.50;;;10.60;63.20;;;;;;4237735;27;20219;-85
2022/05/09 01:22:57;;;;;;;6.50;1.87;;;10.70;63.80;;;;;;4232495;27;20216;-85
2022/05/09 01:25:03;;;;;;;6.87;1.90;;;10.60;64.40;;;;;;4247339;27;20228;-86
2022/05/09 01:27:05;;;;;;;4.53;1.80;;;10.50;65.10;;;;;;4238610;27;20581;-85
2022/05/09 01:29:14;;;;;;;4.03;1.57;;;10.50;66.00;;;;;;4240887;27;20238;-86
2022/05/09 01:31:18;;;;;;;3.53;1.60;;;10.50;67.00;;;;;;4239375;27;20584;-85
2022/05/09 01:33:24;;;;;;;6.67;1.90;;;10.50;67.90;;;;;;4235807;27;20693;-87
2022/05/09 01:35:29;;;;;;;6.60;2.00;;;10.60;68.50;;;;;;4239430;27;20320;-85
2022/05/09 01:37:33;;;;;;;6.60;1.90;;;10.40;69.20;;;;;;4245390;27;20304;-86
2022/05/09 01:39:37;;;;;;;3.90;1.50;;;10.40;70.00;;;;;;4243830;27;20227;-85
2022/05/09 01:41:40;;;;;;;4.53;1.90;;;10.60;71.30;;;;;;4239314;27;20211;-86
2022/05/09 01:43:46;;;;;;;7.67;2.23;;;10.30;71.20;;;;;;4236590;27;20221;-85
2022/05/09 01:45:48;;;;;;;4.20;1.53;;;10.30;72.40;;;;;;4236386;27;20234;-86
2022/05/09 01:50:09;;;;;;;5.43;1.70;;;10.30;73.70;;;;;;4236695;27;20220;-85
2022/05/09 01:52:14;;;;;;;4.40;1.80;;;10.20;74.30;;;;;;4232684;27;20257;-85
2022/05/09 01:54:17;;;;;;;4.50;1.70;;;10.20;74.80;;;;;;4235370;27;20242;-84
2022/05/09 01:56:21;;;;;;;5.43;2.10;;;10.20;75.80;;;;;;4240897;27;20241;-87
2022/05/09 01:58:23;;;;;;;5.43;1.90;;;10.20;76.10;;;;;;4236484;27;20215;-86
2022/05/09 02:00:25;;;;;;;3.80;1.83;;;10.20;76.70;;;;;;4240808;27;20309;-86
2022/05/09 02:02:27;;;;;;;9.20;2.03;;;10.10;77.30;;;;;;4236605;27;20295;-85
2022/05/09 02:04:29;;;;;;;4.57;1.97;;;10.10;78.40;;;;;;4239547;27;20495;-85
2022/05/09 02:06:31;;;;;;;4.63;1.87;;;10.00;79.60;;;;;;4238554;27;20879;-86
2022/05/09 02:08:33;;;;;;;6.00;2.13;;;10.20;80.50;;;;;;4233132;27;20606;-85
2022/05/09 02:10:35;;;;;;;5.63;2.10;;;10.00;81.00;;;;;;4237506;27;20747;-84
2022/05/09 02:12:39;;;;;;;4.33;2.00;;;10.00;81.70;;;;;;4235252;28;20224;-86
2022/05/09 02:14:43;;;;;;;5.17;1.90;;;10.00;82.00;;;;;;4236636;27;20505;-85
2022/05/09 02:16:44;;;;;;;4.67;2.00;;;10.00;82.60;;;;;;4240421;27;20516;-85
2022/05/09 02:18:46;;;;;;;4.67;1.80;;;9.90;82.90;;;;;;4237565;27;20741;-86
2022/05/09 02:20:48;;;;;;;7.37;2.00;;;9.90;83.20;;;;;;4237042;27;20271;-85
2022/05/09 02:22:50;;;;;;;8.57;2.13;;;9.90;83.60;;;;;;4246811;27;20677;-84
2022/05/09 02:24:53;;;;;;;7.00;1.90;;;9.80;84.10;;;;;;4245747;27;20258;-86
2022/05/09 02:26:55;;;;;;;5.53;1.70;;;9.90;85.00;;;;;;4243080;27;20221;-85
2022/05/09 02:28:59;;;;;;;4.87;2.00;;;9.70;85.80;;;;;;4242590;27;20208;-85
2022/05/09 02:31:01;;;;;;;6.13;1.77;;;9.80;86.00;;;;;;4247303;27;20641;-85
2022/05/09 02:33:03;;;;;;;4.07;2.10;;;9.80;86.90;;;;;;4237546;27;20573;-85
2022/05/09 02:35:06;;;;;;;6.97;2.00;;;9.80;86.40;;;;;;4249503;27;20246;-85
2022/05/09 02:37:08;;;;;;;4.70;1.80;;;9.80;86.70;;;;;;4249984;27;20667;-88
2022/05/09 02:39:11;;;;;;;5.63;1.77;;;9.70;88.20;;;;;;4235567;27;20269;-87
2022/05/09 02:41:13;;;;;;;4.67;1.93;;;9.70;88.60;;;;;;4234557;27;20208;-85
2022/05/09 02:43:15;;;;;;;5.83;1.90;;;9.60;89.20;;;;;;4246241;27;20207;-85
2022/05/09 02:45:18;;;;;;;5.10;1.70;;;9.70;90.00;;;;;;4247050;27;20221;-84
2022/05/09 02:47:20;;;;;;;5.23;2.00;;;9.70;90.10;;;;;;4240471;27;20212;-84
2022/05/09 02:49:22;;;;;;;7.30;2.20;;;9.60;90.70;;;;;;4243478;27;20287;-88
2022/05/09 02:51:24;;;;;;;5.27;1.97;;;9.70;90.80;;;;;;4243672;27;20654;-86
2022/05/09 02:53:26;;;;;;;9.50;1.87;;;9.60;91.20;;;;;;4245313;27;20263;-87
2022/05/09 02:55:28;;;;;;;7.40;2.40;;;9.60;91.50;;;;;;4252044;27;20303;-86
2022/05/09 02:57:30;;;;;;;4.77;2.40;;;9.50;91.60;;;;;;4248718;27;20253;-88
2022/05/09 02:59:32;;;;;;;6.47;2.10;;;9.50;91.90;;;;;;4241036;27;20213;-85
2022/05/09 03:01:35;;;;;;;7.43;2.30;;;9.40;91.70;;;;;;4229833;27;20575;-85
2022/05/09 03:05:58;;;;;;;5.97;1.90;;;9.50;92.50;;;;;;4245428;27;20226;-86
2022/05/09 03:08:01;;;;;;;5.20;2.00;;;9.40;92.70;;;;;;4239639;27;20255;-85
2022/05/09 03:10:03;;;;;;;5.90;1.90;;;9.40;93.00;;;;;;4237326;27;20205;-86
2022/05/09 03:12:06;;;;;;;5.17;1.97;;;9.40;93.50;;;;;;4233644;27;20216;-85
2022/05/09 03:14:08;;;;;;;6.90;2.00;;;9.30;93.70;;;;;;4237902;27;20218;-85
2022/05/09 03:16:11;;;;;;;8.87;2.10;;;9.30;94.00;;;;;;4240297;27;20235;-85
2022/05/09 03:18:17;;;;;;;6.53;2.30;;;9.40;94.50;;;;;;4236526;27;20222;-85
2022/05/09 03:20:18;;;;;;;6.67;2.07;;;9.30;94.60;;;;;;4234025;27;20310;-85
2022/05/09 03:22:20;;;;;;;5.87;2.13;;;9.30;94.80;;;;;;4233518;27;20299;-86
2022/05/09 03:24:22;;;;;;;5.27;2.20;;;9.30;95.10;;;;;;4234681;27;20211;-85
2022/05/09 03:26:24;;;;;;;7.30;2.07;;;9.20;95.20;;;;;;4240667;27;20231;-85
2022/05/09 03:28:27;;;;;;;7.30;2.30;;;9.20;95.60;;;;;;4238832;27;20208;-84
2022/05/09 03:30:29;;;;;;;8.53;2.50;;;9.20;95.70;;;;;;4229243;28;21038;-86
2022/05/09 03:32:31;;;;;;;7.07;2.00;;;9.20;95.90;;;;;;4232333;28;20465;-85
2022/05/09 03:34:34;;;;;;;6.90;2.23;;;9.20;96.10;;;;;;4236138;27;20504;-86
2022/05/09 03:36:36;;;;;;;5.87;2.10;;;9.10;96.30;;;;;;4233983;27;20236;-85
2022/05/09 03:38:39;;;;;;;5.40;2.07;;;9.10;96.60;;;;;;4233068;28;20216;-85
2022/05/09 03:40:41;;;;;;;5.27;2.70;;;9.10;96.70;;;;;;4238713;27;20493;-85
2022/05/09 03:42:44;;;;;;;6.70;2.30;;;9.10;96.80;;;;;;4238989;27;20211;-85
2022/05/09 03:44:46;;;;;;;5.83;2.40;;;9.10;97.00;;;;;;4239180;28;20463;-85
2022/05/09 03:46:48;;;;;;;7.30;2.20;;;9.10;97.40;;;;;;4240973;28;20525;-85
2022/05/09 03:48:50;;;;;;;4.83;1.93;;;9.10;97.40;;;;;;4237342;28;20219;-87
2022/05/09 03:50:57;;;;;;;6.77;2.07;;;9.20;97.90;;;;;;4235380;28;20466;-85
2022/05/09 03:52:59;;;;;;;8.47;2.67;;;9.00;97.70;;;;;;4237920;28;20517;-85
2022/05/09 03:55:01;;;;;;;8.27;2.30;;;9.00;97.90;;;;;;4243564;28;20472;-85
2022/05/09 03:57:04;;;;;;;10.03;2.13;;;9.00;98.40;;;;;;4231224;28;20269;-84
2022/05/09 03:59:05;;;;;;;4.93;1.90;;;9.00;98.60;;;;;;4231122;28;20529;-86
2022/05/09 04:01:11;;;;;;;6.73;2.67;;;9.00;98.90;;;;;;4239399;28;20575;-85
2022/05/09 04:03:14;;;;;;;5.20;2.20;;;9.10;99.30;;;;;;4235527;28;20494;-85
2022/05/09 04:05:17;;;;;;;6.87;2.30;;;9.00;99.50;;;;;;4236026;28;20486;-85
2022/05/09 04:07:20;;;;;;;8.70;2.27;;;9.00;99.70;;;;;;4238907;28;20461;-85
2022/05/09 04:09:22;;;;;;;4.73;2.40;;;8.90;99.80;;;;;;4237202;28;20495;-84
2022/05/09 04:11:24;;;;;;;7.73;2.17;;;8.90;99.90;;;;;;4238860;28;20568;-86
2022/05/09 04:13:26;;;;;;;9.53;2.10;;;8.90;99.90;;;;;;4232607;28;20898;-84
2022/05/09 04:17:48;;;;;;;5.93;2.07;;;8.90;99.90;;;;;;4235718;28;20528;-86
2022/05/09 04:19:50;;;;;;;7.53;2.60;;;8.90;99.90;;;;;;4240365;28;20217;-84
2022/05/09 04:21:52;;;;;;;8.93;2.40;;;8.90;99.90;;;;;;4232315;28;20462;-84
2022/05/09 04:23:58;;;;;;;7.23;2.37;;;8.90;99.90;;;;;;4225620;28;20468;-84
2022/05/09 04:26:00;;;;;;;5.03;2.43;;;8.90;99.90;;;;;;4248934;27;20576;-84
2022/05/09 04:28:04;;;;;;;12.93;2.57;;;8.90;99.90;;;;;;4243596;27;20703;-85
2022/05/09 04:30:08;;;;;;;7.77;2.60;;;8.90;99.90;;;;;;4235840;27;20475;-86
2022/05/09 04:32:10;;;;;;;6.73;2.40;;;8.90;99.90;;;;;;4241807;27;20208;-85
2022/05/09 04:34:12;;;;;;;7.73;2.70;;;8.90;99.90;;;;;;4240053;27;20555;-84
2022/05/09 04:36:15;;;;;;;7.17;2.73;;;8.90;99.90;;;;;;4239337;27;21089;-84
2022/05/09 04:38:22;;;;;;;7.13;3.03;;;8.90;99.90;;;;;;4242546;27;20458;-85
2022/05/09 04:40:27;;;;;;;7.30;3.03;;;8.90;99.90;;;;;;4234056;27;21033;-85
2022/05/09 04:42:29;;;;;;;8.80;2.70;;;8.90;99.90;;;;;;4240358;27;20461;-87
2022/05/09 04:44:31;;;;;;;8.00;2.50;;;8.90;99.90;;;;;;4230673;27;20465;-86
2022/05/09 04:46:34;;;;;;;11.73;4.10;;;8.90;99.90;;;;;;4233311;27;20509;-85
2022/05/09 04:48:36;;;;;;;10.57;4.40;;;8.90;99.90;;;;;;4235742;27;20561;-88
2022/05/09 04:50:38;;;;;;;11.13;3.73;;;9.00;99.90;;;;;;4230053;27;20456;-89
2022/05/09 04:52:40;;;;;;;7.47;3.40;;;9.00;99.90;;;;;;4231068;27;20450;-88
2022/05/09 04:54:42;;;;;;;9.20;3.27;;;9.00;99.90;;;;;;4232280;27;20446;-88
2022/05/09 04:56:45;;;;;;;15.10;3.00;;;9.10;99.90;;;;;;4234316;27;20494;-89
2022/05/09 04:58:47;;;;;;;8.30;2.90;;;9.00;99.90;;;;;;4238170;27;20468;-85
2022/05/09 05:00:50;;;;;;;7.80;2.67;;;9.20;99.90;;;;;;4237421;27;21018;-83
2022/05/09 05:02:55;;;;;;;14.47;3.70;;;9.10;99.90;;;;;;4228656;27;20496;-87
2022/05/09 05:04:57;;;;;;;11.03;3.57;;;9.10;99.90;;;;;;4234692;27;20481;-89
2022/05/09 05:07:00;;;;;;;10.70;4.00;;;9.20;99.90;;;;;;4227935;27;20460;-88
2022/05/09 05:09:07;;;;;;;10.77;3.70;;;9.10;99.90;;;;;;4233628;27;20529;-90
2022/05/09 05:11:09;;;;;;;8.87;3.57;;;9.00;99.90;;;;;;4235281;27;20546;-88
2022/05/09 05:13:13;;;;;;;10.67;4.30;;;8.90;99.90;;;;;;4242773;27;20461;-90
2022/05/09 05:15:16;;;;;;;13.50;4.63;;;8.80;99.90;;;;;;4231119;27;21005;-91
2022/05/09 05:17:18;;;;;;;13.23;5.03;;;8.70;99.90;;;;;;4223839;28;20459;-90
2022/05/09 05:19:22;;;;;;;14.37;5.10;;;8.60;99.90;;;;;;4228884;28;20565;-91
2022/05/09 05:21:27;;;;;;;12.73;4.73;;;8.60;99.90;;;;;;4229758;28;20534;-91
2022/05/09 05:23:29;;;;;;;12.27;4.63;;;8.50;99.90;;;;;;4228730;28;20469;-91
2022/05/09 05:25:31;;;;;;;10.60;4.40;;;8.40;99.90;;;;;;4228326;28;20849;-90
2022/05/09 05:27:36;;;;;;;14.10;4.40;;;8.50;99.90;;;;;;4229668;28;20485;-91
2022/05/09 05:29:41;;;;;;;12.83;4.73;;;8.40;99.90;;;;;;4232532;27;20467;-91
2022/05/09 05:31:44;;;;;;;14.93;4.60;;;8.40;99.90;;;;;;4225888;28;20549;-91
2022/05/09 05:33:46;;;;;;;10.97;4.33;;;8.40;99.90;;;;;;4228906;27;20487;-92
2022/05/09 05:35:48;;;;;;;12.37;4.50;;;8.30;99.90;;;;;;4223565;28;20490;-91
2022/05/09 05:37:50;;;;;;;11.47;4.60;;;8.30;99.90;;;;;;4227932;28;20460;-92
2022/05/09 05:39:52;;;;;;;14.20;5.37;;;8.30;99.90;;;;;;4227258;27;20515;-88
2022/05/09 05:41:54;;;;;;;12.17;4.80;;;8.30;99.90;;;;;;4236541;27;20488;-88
2022/05/09 05:43:55;;;;;;;12.93;4.97;;;8.40;99.90;;;;;;4225880;27;20908;-88
2022/05/09 05:45:59;;;;;;;13.80;4.70;;;8.30;99.90;;;;;;4230934;27;21118;-88
2022/05/09 05:48:01;;;;;;;10.47;4.97;;;8.40;99.90;;;;;;4226088;27;20477;-88
2022/05/09 05:50:03;;;;;;;12.53;5.60;;;8.40;99.90;;;;;;4227121;27;20473;-87
2022/05/09 05:52:06;;;;;;;12.40;4.77;;;8.40;99.90;;;;;;4228561;27;20473;-88
2022/05/09 05:54:08;;;;;;;10.70;4.40;;;8.40;99.90;;;;;;4222925;27;21003;-88
2022/05/09 05:56:10;;;;;;;10.27;4.83;;;8.40;99.90;;;;;;4228398;27;20519;-87
2022/05/09 05:58:12;;;;;;;14.47;4.93;;;8.70;99.90;;;;;;4220422;28;20549;-89
2022/05/09 06:00:19;;;;;;;15.93;5.37;;;8.50;99.90;;;;;;4225968;28;20465;-90
2022/05/09 06:02:26;;;;;;;16.40;4.77;;;8.50;99.90;;;;;;4226114;27;20495;-88
2022/05/09 06:04:27;;;;;;;16.27;5.57;;;8.50;99.90;;;;;;4215603;28;20459;-88
2022/05/09 06:06:29;;;;;;;13.47;5.40;;;8.50;99.90;;;;;;4227436;27;20919;-88
2022/05/09 06:08:31;;;;;;;13.60;5.03;;;8.60;99.90;;;;;;4230402;27;20984;-87
2022/05/09 06:10:33;;;;;;;10.30;4.60;;;8.60;99.90;;;;;;4238085;27;20441;-88
2022/05/09 06:12:35;;;;;;;12.47;4.37;;;8.60;99.90;;;;;;4223386;27;21047;-89
2022/05/09 06:14:37;;;;;;;9.60;4.30;;;8.70;99.90;;;;;;4222563;28;20826;-87
2022/05/09 06:16:40;;;;;;;16.00;4.93;;;8.80;99.90;;;;;;4211978;28;20489;-87
2022/05/09 06:18:45;;;;;;;13.67;4.43;;;8.70;99.90;;;;;;4237144;27;20568;-88
2022/05/09 06:20:47;;;;;;;9.93;4.20;;;8.80;99.90;;;;;;4247950;27;20480;-89
2022/05/09 06:22:49;;;;;;;10.27;4.43;;;8.80;99.90;;;;;;4236693;28;20672;-90
2022/05/09 06:24:58;;;;;;;10.97;4.20;;;8.80;99.90;;;;;;4239187;28;20446;-90
2022/05/09 06:26:59;;;;;;;11.93;4.40;;;8.90;99.90;;;;;;4253845;27;20942;-89
2022/05/09 06:29:06;;;;;;;14.77;4.90;;;9.00;99.90;;;;;;4232418;27;20486;-88
2022/05/09 06:31:08;;;;;;;10.90;4.80;;;8.90;99.90;;;;;;4227358;27;20470;-88
2022/05/09 06:33:10;;;;;;;16.97;5.53;;;9.00;99.90;;;;;;4235598;27;20481;-90
2022/05/09 06:35:15;;;;;;;14.10;5.10;;;9.10;99.90;;;;;;4239532;27;20491;-91
2022/05/09 06:37:17;;;;;;;10.37;4.33;;;9.10;99.90;;;;;;4237148;28;20453;-90
2022/05/09 06:39:19;;;;;;;8.83;4.30;;;9.20;99.90;;;;;;4240014;27;20488;-90
2022/05/09 06:41:21;;;;;;;10.83;4.20;;;9.20;99.90;;;;;;4232600;27;20895;-87
2022/05/09 06:43:23;;;;;;;13.20;4.77;;;9.20;99.90;;;;;;4220758;28;20455;-87
2022/05/09 06:45:25;;;;;;;9.93;4.60;;;9.30;99.90;;;;;;4224219;27;20480;-86
2022/05/09 06:47:28;;;;;;;9.83;4.40;;;9.30;99.90;;;;;;4235754;27;20475;-90
2022/05/09 06:49:31;;;;;;;11.07;4.80;;;9.40;99.90;;;;;;4223212;27;20462;-87
2022/05/09 06:51:34;;;;;;;9.47;3.80;;;9.50;99.90;;;;;;4223774;27;20447;-88
2022/05/09 06:53:36;;;;;;;11.17;3.93;;;9.40;99.90;;;;;;4227956;27;20466;-88
2022/05/09 06:55:38;;;;;;;14.47;3.83;;;9.40;99.90;;;;;;4262997;22;20236;-80
2022/05/09 06:57:42;;;;;;;12.37;4.07;;;9.50;99.90;;;;;;4196559;28;20209;-80
2022/05/09 06:59:44;;;;;;;15.17;4.87;;;9.40;99.90;;;;;;4206575;28;20607;-80
2022/05/09 07:01:46;;;;;;;15.70;4.43;;;9.50;99.90;;;;;;4201893;28;20290;-80
2022/05/09 07:03:49;;;;;;;13.27;3.90;;;9.60;99.90;;;;;;4196836;28;20274;-80
2022/05/09 07:05:53;;;;;;;11.80;4.20;;;9.70;99.90;;;;;;4198416;28;20225;-80
2022/05/09 07:07:59;;;;;;;9.03;4.30;;;9.70;99.90;;;;;;4191904;28;20228;-82
2022/05/09 07:10:01;;;;;;;10.77;4.17;;;9.70;99.90;;;;;;4192698;28;20213;-80
2022/05/09 07:12:03;;;;;;;13.37;3.80;;;9.80;99.90;;;;;;4194672;28;20209;-80
2022/05/09 07:14:05;;;;;;;9.13;4.27;;;9.80;99.90;;;;;;4198395;28;20218;-80
2022/05/09 07:16:08;;;;;;;14.73;4.70;;;9.90;99.90;;;;;;4193820;28;20319;-80
2022/05/09 07:18:10;;;;;;;10.50;3.97;;;10.50;99.90;;;;;;4198210;28;20213;-81
2022/05/09 07:20:12;;;;;;;13.97;4.10;;;10.00;99.90;;;;;;4198071;28;20271;-81
2022/05/09 07:22:14;;;;;;;14.20;4.00;;;10.00;99.90;;;;;;4198191;28;20645;-81
2022/05/09 07:24:17;;;;;;;10.60;4.43;;;10.10;99.90;;;;;;4189655;28;20565;-81
2022/05/09 07:26:19;;;;;;;9.50;4.47;;;10.20;99.90;;;;;;4193363;28;20237;-80
2022/05/09 07:28:21;;;;;;;13.63;4.13;;;10.10;99.90;;;;;;4194906;28;20725;-81
2022/05/09 07:30:23;;;;;;;11.53;4.00;;;10.20;99.90;;;;;;4194598;28;20220;-80
2022/05/09 07:32:27;;;;;;;9.57;3.60;;;10.30;99.90;;;;;;4196234;28;20738;-80
2022/05/09 07:34:29;;;;;;;8.97;4.43;;;10.30;99.90;;;;;;4198716;28;20214;-81
2022/05/09 07:36:31;;;;;;;9.63;3.97;;;10.40;99.90;;;;;;4194396;28;20230;-81
2022/05/09 07:38:33;;;;;;;10.13;4.67;;;10.50;99.90;;;;;;4189417;28;20254;-81
2022/05/09 07:40:36;;;;;;;11.13;4.77;;;10.50;99.90;;;;;;4191907;28;20435;-80
2022/05/09 07:42:38;;;;;;;8.93;4.80;;;10.50;99.90;;;;;;4192963;28;20321;-80
2022/05/09 07:44:40;;;;;;;7.30;4.00;;;10.60;99.90;;;;;;4191480;28;20211;-80
2022/05/09 07:46:44;;;;;;;12.57;4.07;;;10.70;99.90;;;;;;4192798;28;20780;-80
2022/05/09 07:48:47;;;;;;;11.57;3.90;;;10.70;99.90;;;;;;4196488;28;20219;-80
2022/05/09 07:50:49;;;;;;;11.97;3.93;;;10.70;99.90;;;;;;4197083;28;20218;-81
2022/05/09 07:52:50;;;;;;;12.63;3.80;;;10.80;99.90;;;;;;4200552;28;20264;-80
2022/05/09 07:54:52;;;;;;;10.87;3.53;;;10.80;99.90;;;;;;4196677;28;20249;-81
2022/05/09 07:56:55;;;;;;;11.00;3.67;;;10.90;99.90;;;;;;4189617;28;20313;-80
2022/05/09 07:58:59;;;;;;;11.67;3.50;;;10.90;99.90;;;;;;4194147;28;20214;-81
2022/05/09 08:01:02;;;;;;;12.90;4.20;;;11.00;99.90;;;;;;4195844;28;20219;-80
2022/05/09 08:03:06;;;;;;;11.50;4.00;;;11.10;99.90;;;;;;4197343;28;20701;-80
2022/05/09 08:05:10;;;;;;;7.93;4.03;;;11.10;99.90;;;;;;4198270;28;20220;-80
2022/05/09 08:07:13;;;;;;;9.60;3.40;;;11.20;99.90;;;;;;4193365;28;20552;-81
2022/05/09 08:09:15;;;;;;;11.97;4.07;;;11.20;99.90;;;;;;4197014;28;20301;-80
2022/05/09 08:11:17;;;;;;;7.13;3.43;;;11.30;99.90;;;;;;4198951;28;20215;-80
2022/05/09 08:13:20;;;;;;;8.83;3.50;;;11.30;99.90;;;;;;4199991;28;20433;-80
2022/05/09 08:15:22;;;;;;;11.00;4.57;;;11.40;99.90;;;;;;4200928;28;20208;-80
2022/05/09 08:17:24;;;;;;;9.97;3.80;;;11.40;99.90;;;;;;4196603;28;20227;-80
2022/05/09 08:19:25;;;;;;;8.80;3.70;;;11.50;99.90;;;;;;4198034;28;20639;-80
2022/05/09 08:21:27;;;;;;;10.10;3.40;;;11.60;99.90;;;;;;4193392;28;20216;-80
2022/05/09 08:23:30;;;;;;;8.83;3.90;;;11.60;99.90;;;;;;4191496;28;20217;-80
2022/05/09 08:25:34;;;;;;;7.20;3.47;;;11.70;99.90;;;;;;4189966;28;20216;-80
2022/05/09 08:27:36;;;;;;;8.73;3.60;;;11.80;99.90;;;;;;4198237;28;20220;-80
2022/05/09 08:29:40;;;;;;;10.03;3.60;;;11.90;99.90;;;;;;4197953;28;20675;-80
2022/05/09 08:31:42;;;;;;;9.93;3.50;;;11.90;99.90;;;;;;4202230;28;20223;-80
2022/05/09 08:33:44;;;;;;;11.77;4.03;;;12.00;99.90;;;;;;4197916;28;20216;-80
2022/05/09 08:35:51;;;;;;;8.50;3.70;;;12.00;99.90;;;;;;4194296;28;20240;-80
2022/05/09 08:37:52;;;;;;;8.23;3.53;;;12.10;99.90;;;;;;4203017;28;20212;-81
2022/05/09 08:39:54;;;;;;;10.60;3.23;;;12.10;99.90;;;;;;4195703;28;20228;-80
2022/05/09 08:41:59;;;;;;;8.60;3.20;;;12.20;99.90;;;;;;4198128;28;20290;-80
2022/05/09 08:44:17;;;;;;;10.83;3.70;;;12.80;99.90;;;;;;4190044;28;20224;-81
2022/05/09 08:46:31;;;;;;;8.07;3.20;;;12.30;99.90;;;;;;4195490;28;20323;-80
2022/05/09 08:48:47;;;;;;;10.03;3.00;;;12.40;99.90;;;;;;4190822;28;20213;-80
2022/05/09 08:51:01;;;;;;;9.13;3.20;;;12.50;99.90;;;;;;4192250;28;20262;-80
2022/05/09 08:53:07;;;;;;;10.37;3.23;;;12.70;99.90;;;;;;4197503;28;20620;-80
2022/05/09 08:55:14;;;;;;;5.07;2.70;;;12.60;99.90;;;;;;4194489;28;20272;-80
2022/05/09 08:57:23;;;;;;;8.37;2.93;;;12.70;99.90;;;;;;4194037;28;20244;-80
2022/05/09 08:59:30;;;;;;;8.63;2.80;;;12.70;99.90;;;;;;4201094;28;20217;-80
2022/05/09 09:01:42;;;;;;;6.17;2.70;;;12.80;99.90;;;;;;4199335;28;20674;-80
2022/05/09 09:03:52;;;;;;;7.20;2.73;;;12.90;99.90;;;;;;4195097;28;20270;-80
2022/05/09 09:05:58;;;;;;;9.17;3.10;;;13.00;99.90;;;;;;4196327;28;20351;-80
2022/05/09 09:08:13;;;;;;;9.90;2.77;;;13.10;99.90;;;;;;4196668;28;20217;-80
2022/05/09 09:10:26;;;;;;;10.63;3.73;;;13.20;99.90;;;;;;4193123;28;20217;-80
2022/05/09 09:12:38;;;;;;;6.93;2.60;;;13.30;99.90;;;;;;4195432;28;20299;-80
2022/05/09 09:15:03;;;;;;;11.20;3.10;;;13.50;99.90;;;;;;4191624;28;20220;-80
2022/05/09 09:17:17;;;;;;;7.97;3.00;;;13.50;99.90;;;;;;4195350;28;20237;-80
2022/05/09 09:19:40;;;;;;;6.73;3.00;;;13.60;99.90;;;;;;4194140;28;20263;-80
2022/05/09 09:21:53;;;;;;;9.23;2.90;;;13.80;99.90;;;;;;4197208;28;20209;-80
2022/05/09 09:24:19;;;;;;;6.77;2.80;;;13.90;99.90;;;;;;4190060;28;20215;-80
2022/05/09 09:26:36;;;;;;;9.30;3.20;;;13.90;99.90;;;;;;4202536;28;20230;-80
2022/05/09 09:28:46;;;;;;;7.60;2.97;;;14.00;99.90;;;;;;4198743;28;20762;-80
2022/05/09 09:30:48;;;;;;;7.17;2.50;;;14.10;99.90;;;;;;4200476;28;20222;-80
2022/05/09 09:32:56;;;;;;;9.37;3.07;;;14.20;99.90;;;;;;4201009;28;20651;-80
2022/05/09 09:35:01;;;;;;;8.33;2.90;;;14.30;99.90;;;;;;4199090;28;20437;-80
2022/05/09 09:37:12;;;;;;;7.53;2.53;;;14.40;99.90;;;;;;4203863;28;20237;-80
2022/05/09 09:39:19;;;;;;;5.03;2.37;;;14.50;99.90;;;;;;4198548;28;20250;-80
2022/05/09 09:41:23;;;;;;;7.83;2.70;;;14.60;99.90;;;;;;4197633;28;20220;-80
2022/05/09 09:43:34;;;;;;;9.27;2.90;;;14.70;99.90;;;;;;4196302;28;20229;-81
2022/05/09 09:45:40;;;;;;;8.47;3.20;;;14.80;99.90;;;;;;4195042;28;20224;-79
2022/05/09 09:47:42;;;;;;;6.97;2.93;;;14.80;99.90;;;;;;4191616;28;20501;-79
2022/05/09 09:49:47;;;;;;;9.73;3.47;;;15.00;99.90;;;;;;4201753;28;20734;-79
2022/05/09 09:51:50;;;;;;;7.73;2.67;;;15.00;99.90;;;;;;4204830;28;20225;-80
2022/05/09 09:54:02;;;;;;;6.90;2.90;;;15.10;99.90;;;;;;4194051;28;20218;-79
2022/05/09 09:56:07;;;;;;;8.10;2.90;;;15.20;99.90;;;;;;4195685;28;20296;-79
2022/05/09 09:58:21;;;;;;;7.40;2.87;;;15.30;99.90;;;;;;4192960;28;20743;-79
2022/05/09 10:00:27;;;;;;;10.23;3.40;;;15.40;99.90;;;;;;4194390;28;20259;-79
2022/05/09 10:02:30;;;;;;;8.57;2.67;;;15.50;99.90;;;;;;4193407;28;20300;-78
2022/05/09 10:04:35;;;;;;;8.20;2.57;;;15.60;99.90;;;;;;4186022;28;20209;-78
2022/05/09 10:06:59;;;;;;;8.73;2.87;;;15.70;99.90;;;;;;4193337;28;20527;-78
2022/05/09 10:09:04;;;;;;;7.00;2.73;;;15.80;99.90;;;;;;4187144;28;20211;-78
2022/05/09 10:11:09;;;;;;;20.27;3.20;;;15.90;99.90;;;;;;4194768;28;20227;-79
2022/05/09 10:13:21;;;;;;;13.97;3.03;;;16.00;99.90;;;;;;4200031;28;20213;-78
2022/05/09 10:15:26;;;;;;;11.07;2.80;;;16.10;99.90;;;;;;4192993;28;20208;-77
2022/05/09 10:17:30;;;;;;;6.30;2.50;;;16.10;99.90;;;;;;4195919;28;20225;-79
2022/05/09 10:19:32;;;;;;;9.07;2.70;;;16.20;99.90;;;;;;4197610;28;20214;-80
2022/05/09 10:26:22;;;;;;;4.47;2.27;;;16.50;99.90;;;;;;4196995;28;20315;-78
2022/05/09 10:28:25;;;;;;;5.13;2.30;;;16.60;99.90;;;;;;4189908;28;20668;-80
2022/05/09 10:30:33;;;;;;;4.37;2.30;;;16.70;99.90;;;;;;4192924;28;20233;-78
2022/05/09 10:32:45;;;;;;;5.60;2.60;;;16.90;99.90;;;;;;4191539;28;20206;-78
2022/05/09 10:34:55;;;;;;;7.33;2.77;;;17.00;99.90;;;;;;4185909;28;20587;-78
2022/05/09 10:37:04;;;;;;;8.10;2.53;;;17.10;99.90;;;;;;4189185;28;20234;-78
2022/05/09 10:39:10;;;;;;;6.87;2.17;;;17.20;99.90;;;;;;4191320;28;20736;-78
2022/05/09 10:41:20;;;;;;;6.80;2.70;;;17.30;99.90;;;;;;4189579;28;20714;-78
2022/05/09 10:43:26;;;;;;;4.87;2.50;;;17.40;99.90;;;;;;4195736;28;20293;-78
2022/05/09 10:45:34;;;;;;;5.47;2.20;;;17.60;99.90;;;;;;4188795;28;20504;-78
2022/05/09 10:47:43;;;;;;;10.93;2.80;;;17.70;99.90;;;;;;4191533;28;20919;-78
2022/05/09 10:49:49;;;;;;;6.07;2.83;;;17.80;99.90;;;;;;4198449;28;20278;-78
2022/05/09 10:51:57;;;;;;;6.10;2.20;;;18.00;99.90;;;;;;4198914;28;20635;-78
2022/05/09 10:54:06;;;;;;;5.57;2.60;;;18.00;99.90;;;;;;4191569;28;20288;-78
2022/05/09 10:56:13;;;;;;;6.93;2.50;;;18.20;99.90;;;;;;4192371;28;20251;-78
2022/05/09 10:58:23;;;;;;;6.40;2.50;;;18.40;99.90;;;;;;4187448;28;20233;-78
2022/05/09 11:00:26;;;;;;;3.40;2.20;;;18.60;99.90;;;;;;4189283;28;20213;-78